Time;durP1;ratioP1;P1;durP2;ratioP2;P2;SDS_P1;SDS_P2;PMS_P1;PMS_P2;Temp;Humidity;BMP_temperature;BMP_pressure;BME280_temperature;BME280_humidity;BME280_pressure;Samples;Min_cycle;Max_cycle;Signal;HPM_P1;HPM_P2
2023/11/25 00:01:14;;;;;;;4.22;1.95;;;;;;;12.82;57.64;91657.47;4871318;29;20025;-72
2023/11/25 00:03:39;;;;;;;7.00;1.65;;;;;;;12.79;58.06;91663.59;4871008;29;20296;-73
2023/11/25 00:06:05;;;;;;;12.52;2.22;;;;;;;12.76;58.16;91642.97;4871212;29;20037;-73
2023/11/25 00:08:31;;;;;;;11.55;1.90;;;;;;;12.72;59.34;91658.22;4871027;29;20211;-72
2023/11/25 00:10:56;;;;;;;9.45;2.47;;;;;;;12.71;59.21;91641.44;4871201;29;20031;-73
2023/11/25 00:13:22;;;;;;;7.50;2.00;;;;;;;12.61;59.96;91668.91;4870820;29;20021;-73
2023/11/25 00:15:48;;;;;;;9.05;2.10;;;;;;;12.67;59.75;91662.03;4870639;29;20070;-75
2023/11/25 00:18:14;;;;;;;7.35;2.00;;;;;;;12.61;59.52;91618.88;4869528;29;20325;-73
2023/11/25 00:20:39;;;;;;;8.63;1.60;;;;;;;12.64;60.14;91654.81;4870771;29;20100;-73
2023/11/25 00:23:05;;;;;;;11.55;1.75;;;;;;;12.65;59.96;91598.28;4870559;29;20088;-72
2023/11/25 00:25:30;;;;;;;10.60;2.45;;;;;;;12.58;60.17;91649.06;4870683;29;20026;-72
2023/11/25 00:27:56;;;;;;;4.95;1.80;;;;;;;12.61;59.76;91610.88;4870811;29;20021;-73
2023/11/25 00:30:23;;;;;;;8.63;2.10;;;;;;;12.64;59.46;91612.78;4870517;29;20033;-73
2023/11/25 00:32:50;;;;;;;9.45;1.55;;;;;;;12.67;59.56;91615.84;4870719;29;20017;-73
2023/11/25 00:35:15;;;;;;;10.73;1.80;;;;;;;12.68;60.13;91612.03;4870538;29;20029;-73
2023/11/25 00:37:41;;;;;;;6.95;2.20;;;;;;;12.70;59.12;91599.03;4870593;29;20096;-73
2023/11/25 00:40:10;;;;;;;13.75;2.20;;;;;;;12.71;59.37;91603.25;4870660;29;20029;-73
2023/11/25 00:42:41;;;;;;;4.57;1.50;;;;;;;12.64;60.04;91604.78;4870303;29;20026;-73
2023/11/25 00:45:09;;;;;;;7.27;2.00;;;;;;;12.63;60.15;91591.78;4870401;29;20032;-73
2023/11/25 00:47:36;;;;;;;4.00;1.45;;;;;;;12.60;60.78;91587.97;4870459;29;20270;-74
2023/11/25 00:50:04;;;;;;;9.73;1.67;;;;;;;12.62;61.28;91587.59;4870373;29;20461;-73
2023/11/25 00:52:30;;;;;;;4.28;1.42;;;;;;;12.52;61.51;91605.16;4870284;29;20025;-73
2023/11/25 00:54:55;;;;;;;3.88;1.02;;;;;;;12.38;62.59;91607.78;4870473;29;20040;-74
2023/11/25 00:57:21;;;;;;;8.45;2.10;;;;;;;12.40;64.20;91616.94;4870301;29;20073;-74
2023/11/25 00:59:47;;;;;;;6.50;1.63;;;;;;;12.27;66.78;91598.97;4870330;29;20382;-74
2023/11/25 01:02:13;;;;;;;6.68;1.08;;;;;;;12.17;67.41;91569.22;4870044;29;20029;-73
2023/11/25 01:04:40;;;;;;;2.60;1.33;;;;;;;12.06;65.82;91525.69;4870198;29;20248;-73
2023/11/25 01:07:06;;;;;;;5.70;1.35;;;;;;;12.10;65.32;91582.53;4870123;29;20029;-74
2023/11/25 01:09:32;;;;;;;7.32;1.30;;;;;;;12.18;66.83;91596.69;4870181;29;20093;-74
2023/11/25 01:11:57;;;;;;;6.55;1.70;;;;;;;12.06;68.32;91595.13;4870196;29;20271;-73
2023/11/25 01:14:23;;;;;;;11.13;1.42;;;;;;;11.94;69.04;91574.09;4870499;29;20101;-73
2023/11/25 01:16:52;;;;;;;6.90;1.50;;;;;;;11.83;70.64;91566.78;4870216;29;20032;-72
2023/11/25 01:19:17;;;;;;;5.10;0.90;;;;;;;11.71;71.00;91567.13;4870176;29;20099;-72
2023/11/25 01:21:43;;;;;;;3.10;0.80;;;;;;;11.62;68.88;91548.81;4870017;29;20111;-73
2023/11/25 01:24:11;;;;;;;2.60;0.80;;;;;;;11.65;69.78;91509.94;4870148;29;20328;-71
2023/11/25 01:26:38;;;;;;;1.38;0.60;;;;;;;11.68;69.82;91529.75;4870274;29;20029;-71
2023/11/25 01:29:04;;;;;;;2.25;0.70;;;;;;;11.64;68.49;91524.41;4870227;29;20243;-71
2023/11/25 01:31:30;;;;;;;2.05;0.70;;;;;;;11.65;68.71;91542.69;4870007;29;20033;-71
2023/11/25 01:33:57;;;;;;;3.03;0.65;;;;;;;11.70;68.18;91554.91;4869942;29;20096;-71
2023/11/25 01:36:23;;;;;;;3.38;0.95;;;;;;;11.72;68.95;91568.66;4870018;29;20025;-72
2023/11/25 01:38:49;;;;;;;2.15;0.63;;;;;;;11.73;70.56;91556.84;4870192;29;20022;-72
2023/11/25 01:41:14;;;;;;;1.88;0.68;;;;;;;11.75;69.69;91549.22;4870046;29;20031;-72
2023/11/25 01:43:40;;;;;;;2.45;0.60;;;;;;;11.80;70.96;91550.75;4870018;29;20032;-71
2023/11/25 01:46:06;;;;;;;7.45;1.15;;;;;;;11.75;72.01;91543.88;4870507;29;20025;-71
2023/11/25 01:48:34;;;;;;;1.38;0.57;;;;;;;11.71;68.84;91542.34;4873557;29;20025;-71
2023/11/25 01:51:03;;;;;;;2.50;0.98;;;;;;;11.68;71.77;91535.09;4873449;29;20022;-71
2023/11/25 01:53:28;;;;;;;4.65;0.60;;;;;;;11.69;71.13;91537.38;4873449;29;20073;-71
2023/11/25 01:55:56;;;;;;;3.75;0.43;;;;;;;11.70;70.49;91548.81;4873691;29;20041;-72
2023/11/25 01:58:21;;;;;;;0.93;0.50;;;;;;;11.72;70.08;91531.28;4873781;29;20230;-72
2023/11/25 02:00:49;;;;;;;7.82;1.88;;;;;;;11.74;74.11;91539.69;4873180;29;20074;-72
2023/11/25 02:03:15;;;;;;;4.72;2.28;;;;;;;11.72;74.99;91531.28;4873284;29;20025;-71
2023/11/25 02:05:43;;;;;;;15.73;3.25;;;;;;;11.62;75.97;91521.34;4873460;29;20033;-71
2023/11/25 02:08:09;;;;;;;8.40;3.42;;;;;;;11.49;76.84;91533.50;4873419;29;20040;-71
2023/11/25 02:10:35;;;;;;;10.93;3.22;;;;;;;11.42;77.35;91539.56;4873402;29;20029;-71
2023/11/25 02:13:08;;;;;;;10.95;3.50;;;;;;;11.30;78.16;91543.31;4873344;29;20354;-71
2023/11/25 02:15:38;;;;;;;8.93;3.50;;;;;;;11.15;78.54;91525.72;4873066;29;20040;-71
2023/11/25 02:18:04;;;;;;;6.53;3.38;;;;;;;10.90;80.42;91547.66;4873159;29;20028;-71
2023/11/25 02:20:31;;;;;;;8.18;2.70;;;;;;;10.87;80.19;91548.41;4873300;29;20217;-71
2023/11/25 02:22:57;;;;;;;6.38;2.47;;;;;;;10.83;80.47;91537.72;4871924;29;20029;-71
2023/11/25 02:25:24;;;;;;;7.20;3.00;;;;;;;10.82;81.17;91544.16;4873050;29;20021;-71
2023/11/25 02:27:50;;;;;;;7.75;3.20;;;;;;;10.76;81.42;91536.91;4872983;29;20021;-71
2023/11/25 02:30:17;;;;;;;4.28;2.58;;;;;;;10.68;81.58;91549.41;4872915;29;20025;-71
2023/11/25 02:32:43;;;;;;;6.90;2.50;;;;;;;10.58;81.70;91537.53;4872920;29;20017;-71
2023/11/25 02:35:11;;;;;;;9.13;2.63;;;;;;;10.49;82.45;91544.31;4871611;29;20036;-71
2023/11/25 02:37:37;;;;;;;4.00;1.95;;;;;;;10.28;83.16;91542.97;4872571;29;20228;-71
2023/11/25 02:40:04;;;;;;;3.65;1.70;;;;;;;10.14;82.96;91548.94;4872485;29;20116;-71
2023/11/25 02:42:30;;;;;;;3.35;1.50;;;;;;;10.04;82.82;91552.25;4872336;29;20029;-71
2023/11/25 02:44:56;;;;;;;4.22;1.88;;;;;;;9.74;83.76;91549.66;4872800;29;20169;-71
2023/11/25 02:47:23;;;;;;;3.70;1.20;;;;;;;9.63;83.77;91554.88;4872602;29;20033;-71
2023/11/25 02:49:48;;;;;;;6.63;1.33;;;;;;;9.49;84.29;91554.69;4872660;29;20029;-71
2023/11/25 02:52:14;;;;;;;1.45;0.85;;;;;;;9.30;84.10;91550.28;4872712;29;20056;-73
2023/11/25 02:54:39;;;;;;;4.53;0.90;;;;;;;9.11;84.50;91567.88;4871471;29;20092;-73
2023/11/25 02:57:07;;;;;;;2.50;0.98;;;;;;;8.91;85.47;91567.22;4870553;29;20075;-72
2023/11/25 02:59:35;;;;;;;1.95;1.05;;;;;;;8.71;86.33;91566.56;4870761;29;20277;-71
2023/11/25 03:02:09;;;;;;;1.45;0.73;;;;;;;8.53;87.36;91565.50;4871379;29;20149;-71
2023/11/25 03:04:37;;;;;;;2.55;1.08;;;;;;;8.37;88.12;91573.59;4871437;29;20049;-72
2023/11/25 03:07:04;;;;;;;5.57;0.90;;;;;;;8.17;88.63;91560.38;4871345;29;20047;-72
2023/11/25 03:09:30;;;;;;;3.22;0.90;;;;;;;8.01;89.52;91565.78;4871321;29;20025;-72
2023/11/25 03:11:57;;;;;;;7.10;1.17;;;;;;;7.79;90.38;91561.22;4871355;29;20040;-72
2023/11/25 03:14:23;;;;;;;0.88;0.50;;;;;;;7.41;91.04;91568.84;4871553;29;20251;-72
2023/11/25 03:16:49;;;;;;;4.25;0.80;;;;;;;7.15;92.46;91566.81;4871169;29;20104;-72
2023/11/25 03:19:15;;;;;;;4.38;0.80;;;;;;;6.88;92.93;91557.13;4871197;29;20312;-71
2023/11/25 03:21:43;;;;;;;3.30;0.93;;;;;;;6.66;94.10;91550.63;4871046;29;20104;-71
2023/11/25 03:24:08;;;;;;;1.20;0.40;;;;;;;6.50;95.86;91553.28;4870996;29;20033;-72
2023/11/25 03:26:34;;;;;;;2.03;0.85;;;;;;;6.52;95.92;91549.19;4871027;29;20026;-71
2023/11/25 03:29:00;;;;;;;1.08;0.40;;;;;;;6.53;96.02;91542.00;4870967;29;20365;-71
2023/11/25 03:31:27;;;;;;;1.70;0.70;;;;;;;6.45;96.14;91549.00;4871093;29;20089;-71
2023/11/25 03:33:52;;;;;;;0.63;0.35;;;;;;;6.34;96.69;91550.66;4871161;29;20093;-72
2023/11/25 03:36:18;;;;;;;0.75;0.38;;;;;;;6.29;96.23;91558.84;4870766;29;20048;-72
2023/11/25 03:38:43;;;;;;;1.25;0.70;;;;;;;6.15;96.99;91548.69;4870844;29;20219;-71
2023/11/25 03:41:09;;;;;;;0.98;0.40;;;;;;;6.17;96.54;91557.06;4870877;29;20025;-71
2023/11/25 03:43:34;;;;;;;0.32;0.32;;;;;;;6.04;97.05;91553.72;4870877;29;20032;-71
2023/11/25 03:46:00;;;;;;;1.45;0.38;;;;;;;5.99;97.34;91551.34;4870520;29;20070;-72
2023/11/25 03:48:25;;;;;;;1.13;0.43;;;;;;;6.02;97.45;91545.34;4870935;29;20044;-74
2023/11/25 03:50:51;;;;;;;2.53;0.40;;;;;;;5.93;97.68;91542.09;4870406;29;20052;-72
2023/11/25 03:53:18;;;;;;;0.35;0.25;;;;;;;5.91;97.41;91553.00;4830484;29;1200988;-71
2023/11/25 03:55:44;;;;;;;1.58;0.50;;;;;;;5.88;97.27;91544.97;4871371;29;20652;-71
2023/11/25 03:58:10;;;;;;;0.85;0.30;;;;;;;5.93;97.85;91542.09;4871452;29;20029;-72
2023/11/25 04:00:36;;;;;;;2.17;0.50;;;;;;;5.88;97.51;91540.44;4871275;29;20316;-72
2023/11/25 04:03:02;;;;;;;0.95;0.50;;;;;;;5.82;97.42;91542.59;4871180;29;20037;-72
2023/11/25 04:05:27;;;;;;;3.28;0.95;;;;;;;5.65;98.68;91542.13;4871260;29;20033;-72
2023/11/25 04:07:53;;;;;;;1.50;0.68;;;;;;;5.69;98.63;91530.53;4871276;29;20060;-72
2023/11/25 04:10:19;;;;;;;1.67;0.55;;;;;;;5.68;98.80;91525.59;4870730;29;20025;-72
2023/11/25 04:12:46;;;;;;;2.33;0.80;;;;;;;5.58;98.84;91529.50;4871297;29;20022;-72
2023/11/25 04:15:13;;;;;;;3.25;0.90;;;;;;;5.55;98.88;91530.94;4871170;29;20336;-72
2023/11/25 04:17:39;;;;;;;1.60;0.85;;;;;;;5.60;99.14;91528.06;4871022;29;20033;-72
2023/11/25 04:20:24;;;;;;;2.30;0.65;;;;;;;5.64;98.42;91533.44;4871132;29;20026;-72
2023/11/25 04:22:50;;;;;;;1.45;0.50;;;;;;;5.60;98.15;91546.56;4871029;29;20032;-72
2023/11/25 04:25:16;;;;;;;4.20;1.00;;;;;;;5.53;98.38;91546.34;4869786;29;20109;-72
2023/11/25 04:27:43;;;;;;;1.45;0.50;;;;;;;5.47;98.75;91549.59;4871014;29;20051;-71
2023/11/25 04:30:09;;;;;;;3.08;0.80;;;;;;;5.42;98.79;91540.81;4870920;29;20228;-72
2023/11/25 04:32:36;;;;;;;1.40;0.70;;;;;;;5.33;98.49;91552.63;4870776;29;20031;-71
2023/11/25 04:35:04;;;;;;;0.80;0.50;;;;;;;5.30;98.03;91554.06;4870958;29;20079;-71
2023/11/25 04:37:31;;;;;;;1.15;0.40;;;;;;;5.25;97.84;91549.03;4870928;29;20329;-72
2023/11/25 04:39:56;;;;;;;1.10;0.60;;;;;;;5.20;98.26;91551.91;4871018;29;20101;-72
2023/11/25 04:42:22;;;;;;;2.28;0.50;;;;;;;5.11;98.58;91559.16;4870500;29;20029;-71
2023/11/25 04:44:47;;;;;;;1.00;0.38;;;;;;;4.90;97.62;91567.25;4869297;29;20082;-73
2023/11/25 04:47:13;;;;;;;0.65;0.40;;;;;;;4.84;97.29;91556.16;4870607;29;20229;-71
2023/11/25 04:49:39;;;;;;;0.55;0.38;;;;;;;4.73;97.76;91539.25;4870576;29;20025;-71
2023/11/25 04:52:05;;;;;;;2.33;0.60;;;;;;;4.75;97.78;91548.38;4870436;29;20029;-71
2023/11/25 04:54:32;;;;;;;1.45;0.60;;;;;;;4.68;98.44;91545.53;4870467;29;20059;-71
2023/11/25 04:56:58;;;;;;;0.30;0.30;;;;;;;4.57;98.67;91550.47;4870674;29;20036;-71
2023/11/25 04:59:24;;;;;;;0.35;0.30;;;;;;;4.59;98.03;91548.28;4870652;29;20029;-71
2023/11/25 05:01:50;;;;;;;0.20;0.20;;;;;;;4.51;97.33;91548.41;4870403;29;20035;-71
2023/11/25 05:04:15;;;;;;;0.35;0.25;;;;;;;4.38;97.72;91563.47;4869304;29;20025;-71
2023/11/25 05:06:43;;;;;;;0.70;0.40;;;;;;;4.38;98.09;91568.75;4870410;29;20030;-71
2023/11/25 05:09:11;;;;;;;0.70;0.30;;;;;;;4.32;98.18;91575.34;4870586;29;20056;-71
2023/11/25 05:11:37;;;;;;;0.32;0.30;;;;;;;4.16;97.56;91577.88;4870378;29;20036;-71
2023/11/25 05:14:03;;;;;;;0.77;0.47;;;;;;;4.12;97.81;91564.56;4870153;29;20030;-71
2023/11/25 05:16:29;;;;;;;2.67;0.50;;;;;;;4.07;97.85;91575.34;4870261;29;20040;-72
2023/11/25 05:18:55;;;;;;;1.30;0.30;;;;;;;3.99;98.14;91573.56;4870317;29;20029;-72
2023/11/25 05:21:20;;;;;;;0.80;0.47;;;;;;;4.02;97.87;91578.16;4871106;29;20082;-72
2023/11/25 05:23:46;;;;;;;0.73;0.43;;;;;;;3.97;96.82;91579.16;4873957;29;20245;-73
2023/11/25 05:26:12;;;;;;;1.35;0.52;;;;;;;3.94;96.92;91584.31;4873949;29;20025;-73
2023/11/25 05:28:38;;;;;;;1.38;0.57;;;;;;;3.80;96.77;91593.28;4874024;29;20025;-72
2023/11/25 05:31:04;;;;;;;1.20;0.57;;;;;;;3.68;97.98;91595.88;4874115;29;20093;-72
2023/11/25 05:33:29;;;;;;;0.93;0.50;;;;;;;3.52;96.21;91595.75;4873950;29;20025;-71
2023/11/25 05:35:55;;;;;;;0.90;0.40;;;;;;;3.35;96.75;91599.28;4873717;29;20047;-72
2023/11/25 05:38:20;;;;;;;1.40;0.70;;;;;;;3.28;97.07;91629.84;4873760;29;20209;-72
2023/11/25 05:40:46;;;;;;;0.70;0.45;;;;;;;3.12;98.13;91609.38;4873960;29;20100;-72
2023/11/25 05:43:13;;;;;;;0.47;0.40;;;;;;;2.87;98.11;91613.75;4873805;29;20029;-71
2023/11/25 05:45:41;;;;;;;1.30;0.38;;;;;;;2.68;97.04;91632.56;4873761;29;20029;-71
2023/11/25 05:48:07;;;;;;;0.65;0.40;;;;;;;2.55;97.30;91636.97;4873568;29;20033;-71
2023/11/25 05:50:33;;;;;;;1.10;0.47;;;;;;;2.41;96.91;91649.56;4873420;29;20049;-71
2023/11/25 05:52:59;;;;;;;0.63;0.32;;;;;;;2.25;96.60;91648.53;4872272;29;20051;-70
2023/11/25 05:55:26;;;;;;;0.90;0.30;;;;;;;1.97;95.76;91643.69;4873594;29;20025;-70
2023/11/25 05:57:52;;;;;;;0.98;0.35;;;;;;;1.77;96.61;91671.38;4873447;29;20030;-70
2023/11/25 06:00:18;;;;;;;0.75;0.47;;;;;;;1.62;96.15;91672.63;4873314;29;20082;-70
2023/11/25 06:02:44;;;;;;;2.75;0.30;;;;;;;1.49;95.99;91681.47;4873173;29;20093;-70
2023/11/25 06:05:09;;;;;;;1.30;0.50;;;;;;;1.31;97.01;91686.69;4873122;29;20096;-71
2023/11/25 06:07:35;;;;;;;0.30;0.30;;;;;;;1.14;97.28;91676.97;4873050;29;20022;-70
2023/11/25 06:10:03;;;;;;;0.52;0.50;;;;;;;1.12;97.46;91680.97;4873128;29;20085;-70
2023/11/25 06:12:29;;;;;;;0.43;0.30;;;;;;;1.06;98.12;91705.81;4873174;29;20026;-70
2023/11/25 06:14:55;;;;;;;0.28;0.28;;;;;;;1.00;98.04;91710.44;4873361;29;20064;-70
2023/11/25 06:17:23;;;;;;;0.40;0.30;;;;;;;1.02;97.71;91702.25;4872945;29;20100;-70
2023/11/25 06:19:51;;;;;;;1.73;0.22;;;;;;;0.92;97.89;91719.84;4872722;29;20213;-71
2023/11/25 06:22:18;;;;;;;0.32;0.20;;;;;;;0.94;98.21;91709.81;4873082;29;20036;-70
2023/11/25 06:24:44;;;;;;;1.13;0.28;;;;;;;0.96;98.53;91714.75;4871817;29;20100;-71
2023/11/25 06:27:10;;;;;;;0.43;0.28;;;;;;;0.98;98.37;91733.59;4872680;29;20033;-70
2023/11/25 06:29:37;;;;;;;0.32;0.30;;;;;;;0.93;98.66;91734.47;4872703;29;20089;-70
2023/11/25 06:32:03;;;;;;;0.30;0.30;;;;;;;0.89;99.04;91733.53;4872430;29;20114;-70
2023/11/25 06:34:28;;;;;;;0.45;0.30;;;;;;;0.86;98.84;91733.41;4872611;29;20033;-70
2023/11/25 06:36:54;;;;;;;0.43;0.40;;;;;;;0.86;98.99;91731.53;4872522;29;20030;-71
2023/11/25 06:39:22;;;;;;;0.57;0.38;;;;;;;0.83;99.20;91729.50;4872945;29;20033;-69
2023/11/25 06:41:51;;;;;;;0.40;0.30;;;;;;;0.85;99.29;91734.47;4872853;29;20064;-69
2023/11/25 06:44:16;;;;;;;0.22;0.22;;;;;;;0.85;99.21;91743.09;4872739;29;20029;-69
2023/11/25 06:46:43;;;;;;;0.75;0.40;;;;;;;0.85;99.02;91737.09;4872745;29;20038;-69
2023/11/25 06:49:09;;;;;;;2.05;0.40;;;;;;;0.91;98.98;91744.50;4872286;29;20033;-70
2023/11/25 06:51:35;;;;;;;0.30;0.25;;;;;;;0.95;98.85;91737.56;4871957;29;20256;-70
2023/11/25 06:54:00;;;;;;;0.30;0.25;;;;;;;1.00;98.84;91734.81;4872051;29;20053;-70
2023/11/25 06:56:26;;;;;;;0.10;0.10;;;;;;;1.08;98.96;91741.16;4872431;29;20037;-70
2023/11/25 06:58:52;;;;;;;0.43;0.22;;;;;;;1.12;98.48;91739.47;4872162;29;20323;-70
2023/11/25 07:01:18;;;;;;;0.13;0.13;;;;;;;1.19;98.51;91747.66;4872059;29;20039;-70
2023/11/25 07:03:45;;;;;;;0.52;0.30;;;;;;;1.15;97.97;91740.72;4872001;29;20081;-70
2023/11/25 07:06:10;;;;;;;1.88;0.20;;;;;;;1.17;97.93;91749.06;4872446;29;20259;-70
2023/11/25 07:08:37;;;;;;;0.57;0.28;;;;;;;1.23;97.56;91750.44;4872349;29;20045;-70
2023/11/25 07:11:05;;;;;;;0.38;0.30;;;;;;;1.27;97.29;91754.00;4872324;29;20219;-70
2023/11/25 07:13:31;;;;;;;0.20;0.20;;;;;;;1.37;96.99;91740.59;4872080;29;20045;-70
2023/11/25 07:15:57;;;;;;;3.65;0.30;;;;;;;1.44;96.37;91755.09;4872423;29;20041;-70
2023/11/25 07:18:22;;;;;;;1.27;0.40;;;;;;;1.49;95.83;91745.25;4872524;29;20025;-71
2023/11/25 07:20:48;;;;;;;0.55;0.40;;;;;;;1.54;94.82;91737.19;4872264;29;20086;-70
2023/11/25 07:23:18;;;;;;;1.75;0.38;;;;;;;1.56;94.45;91723.75;4872242;29;20261;-70
2023/11/25 07:25:45;;;;;;;0.95;0.30;;;;;;;1.63;94.65;91724.09;4871941;29;20021;-71
2023/11/25 07:28:11;;;;;;;0.30;0.30;;;;;;;1.70;93.82;91723.63;4871940;29;20037;-71
2023/11/25 07:30:37;;;;;;;0.63;0.43;;;;;;;1.74;93.66;91717.41;4871973;29;20099;-71
2023/11/25 07:33:03;;;;;;;1.50;0.70;;;;;;;1.70;93.78;91719.13;4872120;29;20063;-71
2023/11/25 07:35:29;;;;;;;2.08;1.00;;;;;;;1.70;93.59;91727.00;4871832;29;20060;-71
2023/11/25 07:37:55;;;;;;;1.05;0.52;;;;;;;1.65;93.39;91727.19;4871934;29;20025;-70
2023/11/25 07:40:21;;;;;;;1.45;0.65;;;;;;;1.66;93.71;91728.72;4871571;29;20106;-70
2023/11/25 07:42:48;;;;;;;1.80;0.65;;;;;;;1.66;93.53;91722.69;4871672;29;20220;-71
2023/11/25 07:45:16;;;;;;;1.13;0.73;;;;;;;1.63;93.14;91718.03;4870669;29;20029;-70
2023/11/25 07:47:43;;;;;;;2.20;1.08;;;;;;;1.55;93.18;91727.47;4871574;29;20049;-72
2023/11/25 07:50:10;;;;;;;3.92;1.35;;;;;;;1.57;93.36;91712.97;4871306;29;20026;-71
2023/11/25 07:52:36;;;;;;;4.28;1.55;;;;;;;1.63;93.71;91708.34;4871309;29;20208;-71
2023/11/25 07:55:04;;;;;;;4.05;1.33;;;;;;;1.64;93.00;91703.84;4871131;29;20040;-71
2023/11/25 07:57:30;;;;;;;5.38;1.60;;;;;;;1.50;93.37;91707.38;4871028;29;20039;-70
2023/11/25 07:59:55;;;;;;;2.13;0.98;;;;;;;1.53;94.07;91708.66;4871450;29;20281;-70
2023/11/25 08:02:21;;;;;;;1.77;0.85;;;;;;;1.61;93.75;91710.50;4871370;29;20036;-70
2023/11/25 08:04:49;;;;;;;2.40;1.05;;;;;;;1.62;93.63;91706.78;4871469;29;20121;-70
2023/11/25 08:07:17;;;;;;;4.50;1.58;;;;;;;1.62;93.50;91713.88;4871480;29;20115;-72
2023/11/25 08:09:43;;;;;;;4.97;1.92;;;;;;;1.42;93.13;91696.88;4871248;29;20033;-70
2023/11/25 08:12:09;;;;;;;5.13;2.08;;;;;;;1.44;93.14;91706.00;4871351;29;20081;-71
2023/11/25 08:14:35;;;;;;;2.40;1.50;;;;;;;1.34;93.46;91701.06;4871270;29;20028;-71
2023/11/25 08:17:01;;;;;;;3.13;1.42;;;;;;;1.24;94.06;91702.13;4871317;29;20033;-72
2023/11/25 08:19:27;;;;;;;3.10;1.33;;;;;;;1.17;94.48;91707.06;4871278;29;20056;-71
2023/11/25 08:21:52;;;;;;;5.53;1.95;;;;;;;1.09;94.76;91705.22;4871169;29;20033;-71
2023/11/25 08:24:18;;;;;;;1.00;0.60;;;;;;;1.05;95.36;91705.03;4871041;29;20066;-70
2023/11/25 08:26:45;;;;;;;2.15;1.10;;;;;;;0.99;95.79;91711.50;4870911;29;20025;-72
2023/11/25 08:29:13;;;;;;;3.13;1.20;;;;;;;1.00;96.33;91716.47;4871094;29;20029;-71
2023/11/25 08:31:39;;;;;;;1.35;0.70;;;;;;;0.98;95.89;91715.22;4871158;29;20239;-71
2023/11/25 08:34:09;;;;;;;2.78;1.33;;;;;;;0.94;95.84;91709.03;4870861;29;20092;-71
2023/11/25 08:36:53;;;;;;;3.38;1.20;;;;;;;0.95;96.14;91710.56;4870850;29;20256;-73
2023/11/25 08:39:25;;;;;;;3.72;1.17;;;;;;;0.93;96.40;91717.97;4870718;29;20077;-71
2023/11/25 08:41:52;;;;;;;;;;;;;;;0.85;96.80;91721.34;4869991;29;20269;-72
2023/11/25 08:44:18;;;;;;;0.93;0.52;;;;;;;0.77;97.41;91717.63;4870763;29;19920;-73
2023/11/25 08:46:44;;;;;;;1.70;0.90;;;;;;;0.83;97.46;91721.66;4870899;29;20335;-79
2023/11/25 08:49:11;;;;;;;1.88;1.10;;;;;;;0.80;97.35;91724.91;4870663;29;20033;-72
2023/11/25 08:51:46;;;;;;;2.75;1.00;;;;;;;0.84;97.43;91717.19;4870550;29;20052;-73
2023/11/25 08:54:17;;;;;;;1.70;0.90;;;;;;;0.84;97.44;91709.34;4870466;29;20041;-80
2023/11/25 08:56:47;;;;;;;2.25;1.20;;;;;;;0.84;97.35;91715.34;4871061;29;20339;-83
2023/11/25 08:59:17;;;;;;;2.67;1.08;;;;;;;0.87;97.28;91719.97;4870240;29;20029;-75
2023/11/25 09:01:43;;;;;;;3.72;1.50;;;;;;;0.89;97.25;91712.56;4868919;29;20033;-75
2023/11/25 09:04:17;;;;;;;4.18;2.03;;;;;;;0.86;96.89;91722.91;4870327;29;20037;-76
2023/11/25 09:06:45;;;;;;;4.72;1.50;;;;;;;0.91;96.76;91718.28;4870030;29;20048;-76
2023/11/25 09:09:13;;;;;;;5.22;1.67;;;;;;;0.95;96.86;91710.56;4870058;29;20290;-76
2023/11/25 09:11:39;;;;;;;2.88;1.45;;;;;;;0.92;96.49;91706.72;4870474;29;20092;-76
2023/11/25 09:14:05;;;;;;;4.65;2.00;;;;;;;0.91;96.71;91701.78;4870413;29;20032;-76
2023/11/25 09:16:31;;;;;;;2.28;1.48;;;;;;;0.89;96.69;91694.19;4868962;29;20248;-77
2023/11/25 09:18:57;;;;;;;2.75;1.02;;;;;;;0.89;96.92;91702.06;4870117;29;20040;-77
2023/11/25 09:21:23;;;;;;;2.42;1.15;;;;;;;0.86;97.08;91707.94;4869077;29;20037;-77
2023/11/25 09:23:49;;;;;;;1.55;0.85;;;;;;;0.89;96.68;91703.94;4869972;29;20098;-76
2023/11/25 09:26:14;;;;;;;1.30;0.85;;;;;;;0.84;96.93;91704.84;4870099;29;20041;-76
2023/11/25 09:28:40;;;;;;;2.25;1.02;;;;;;;0.85;97.07;91708.25;4870140;29;20025;-78
2023/11/25 09:31:06;;;;;;;1.95;0.95;;;;;;;0.82;97.41;91706.25;4869152;29;20227;-77
2023/11/25 09:33:32;;;;;;;3.45;1.20;;;;;;;0.80;96.92;91709.16;4870206;29;20025;-77
2023/11/25 09:35:57;;;;;;;2.80;1.20;;;;;;;0.84;97.13;91704.09;4870081;29;20033;-77
2023/11/25 09:38:23;;;;;;;5.05;2.05;;;;;;;0.81;97.10;91694.97;4870451;29;20030;-76
2023/11/25 09:40:49;;;;;;;5.35;1.80;;;;;;;0.76;97.35;91690.63;4870213;29;20056;-77
2023/11/25 09:43:17;;;;;;;3.03;1.60;;;;;;;0.80;97.28;91681.06;4869968;29;20264;-76
2023/11/25 09:45:44;;;;;;;2.95;1.48;;;;;;;0.78;97.35;91690.34;4869842;29;20025;-77
2023/11/25 09:48:10;;;;;;;4.57;2.63;;;;;;;0.89;97.45;91678.47;4869773;29;20033;-77
2023/11/25 09:50:37;;;;;;;4.40;1.83;;;;;;;0.89;97.25;91677.69;4869907;29;20060;-77
2023/11/25 09:53:10;;;;;;;3.05;1.27;;;;;;;0.93;96.85;91670.75;4869669;29;20038;-77
2023/11/25 09:55:36;;;;;;;2.65;1.30;;;;;;;0.98;97.15;91668.78;4869855;29;20197;-77
2023/11/25 09:58:06;;;;;;;3.10;1.45;;;;;;;1.02;97.20;91668.16;4869779;29;20031;-77
2023/11/25 10:00:32;;;;;;;4.50;1.10;;;;;;;1.04;96.89;91666.78;4869596;29;20315;-77
2023/11/25 10:03:01;;;;;;;2.17;1.10;;;;;;;1.04;96.62;91663.38;4869812;29;20034;-77
2023/11/25 10:05:27;;;;;;;1.77;0.95;;;;;;;1.04;96.41;91658.13;4869899;29;20116;-77
2023/11/25 10:07:53;;;;;;;1.90;1.00;;;;;;;1.09;96.33;91647.47;4871598;29;20029;-77
2023/11/25 10:10:23;;;;;;;2.03;1.05;;;;;;;1.06;96.20;91633.13;4873185;29;20101;-77
2023/11/25 10:12:50;;;;;;;2.25;1.00;;;;;;;1.11;95.88;91637.44;4873219;29;20033;-76
2023/11/25 10:15:16;;;;;;;3.17;0.98;;;;;;;1.05;95.71;91647.31;4873169;29;20044;-77
2023/11/25 10:17:48;;;;;;;2.72;1.33;;;;;;;1.06;95.99;91640.22;4873198;29;20290;-77
2023/11/25 10:20:18;;;;;;;3.80;1.10;;;;;;;1.03;95.78;91638.22;4873054;29;20225;-77
2023/11/25 10:22:58;;;;;;;1.52;1.08;;;;;;;0.99;96.09;91630.97;4873091;29;20033;-76
2023/11/25 10:25:26;;;;;;;1.58;1.00;;;;;;;1.03;96.47;91631.13;4872072;29;20216;-77
2023/11/25 10:27:53;;;;;;;2.95;1.10;;;;;;;1.11;96.03;91629.59;4873054;29;20029;-77
2023/11/25 10:30:20;;;;;;;1.83;1.10;;;;;;;1.14;96.00;91623.69;4872821;29;20070;-77
2023/11/25 10:32:49;;;;;;;2.67;1.42;;;;;;;1.15;95.87;91625.25;4872863;29;20034;-77
2023/11/25 10:35:14;;;;;;;3.80;1.23;;;;;;;1.19;95.74;91616.47;4872897;29;20117;-77
2023/11/25 10:37:40;;;;;;;2.63;1.27;;;;;;;1.26;95.54;91630.97;4872894;29;20025;-77
2023/11/25 10:40:10;;;;;;;2.85;1.20;;;;;;;1.18;94.94;91625.41;4872933;29;20050;-77
2023/11/25 10:42:41;;;;;;;3.38;1.48;;;;;;;1.12;95.11;91625.88;4872858;29;20026;-77
2023/11/25 10:45:13;;;;;;;2.67;1.27;;;;;;;1.17;95.68;91617.84;4872671;29;20222;-77
2023/11/25 10:47:40;;;;;;;4.28;1.77;;;;;;;1.10;95.17;91607.03;4872661;29;20046;-76
2023/11/25 10:50:06;;;;;;;5.55;1.55;;;;;;;1.15;96.15;91604.28;4871651;29;20104;-77
2023/11/25 10:52:36;;;;;;;2.85;1.42;;;;;;;1.16;95.97;91595.31;4872805;29;20033;-78
2023/11/25 10:55:04;;;;;;;2.55;1.58;;;;;;;1.10;95.71;91589.47;4872652;29;20066;-77
2023/11/25 10:57:34;;;;;;;3.70;1.63;;;;;;;1.11;95.71;91582.34;4872170;29;20081;-76
2023/11/25 11:00:03;;;;;;;2.55;1.60;;;;;;;1.09;95.75;91563.53;4872407;29;20026;-76
2023/11/25 11:02:36;;;;;;;3.15;1.48;;;;;;;0.98;96.08;91571.72;4872143;29;20244;-77
2023/11/25 11:05:14;;;;;;;2.42;1.63;;;;;;;1.00;96.42;91566.94;4871201;29;20231;-77
2023/11/25 11:07:48;;;;;;;2.97;1.20;;;;;;;1.06;96.36;91569.38;4872172;29;20051;-77
2023/11/25 11:10:30;;;;;;;1.83;1.27;;;;;;;1.11;95.74;91554.25;4872222;29;20327;-77
2023/11/25 11:13:08;;;;;;;2.03;0.98;;;;;;;1.09;95.57;91537.28;4872264;29;20035;-77
2023/11/25 11:15:38;;;;;;;2.05;1.27;;;;;;;1.13;95.75;91533.72;4872202;29;20041;-77
2023/11/25 11:18:13;;;;;;;2.55;1.70;;;;;;;1.26;95.40;91526.00;4870685;29;20029;-77
2023/11/25 11:20:51;;;;;;;2.47;1.40;;;;;;;1.34;95.66;91533.88;4871536;29;20042;-77
2023/11/25 11:23:19;;;;;;;2.88;1.77;;;;;;;1.32;95.17;91530.00;4872143;29;20050;-77
2023/11/25 11:26:14;;;;;;;2.80;1.52;;;;;;;1.31;94.59;91531.84;4870898;29;20037;-77
2023/11/25 11:28:43;;;;;;;3.90;1.80;;;;;;;1.27;94.78;91517.06;4871881;29;20036;-78
2023/11/25 11:31:11;;;;;;;3.88;2.00;;;;;;;1.25;95.43;91506.84;4871933;29;20064;-77
2023/11/25 11:33:37;;;;;;;4.60;2.38;;;;;;;1.24;95.68;91497.44;4871726;29;20041;-77
2023/11/25 11:36:06;;;;;;;4.68;1.85;;;;;;;1.30;95.46;91490.16;4870540;29;20029;-77
2023/11/25 11:38:32;;;;;;;4.90;2.35;;;;;;;1.31;95.14;91489.88;4871779;29;20029;-78